Time;durP1;ratioP1;P1;durP2;ratioP2;P2;SDS_P1;SDS_P2;PMS_P1;PMS_P2;Temp;Humidity;BMP_temperature;BMP_pressure;BME280_temperature;BME280_humidity;BME280_pressure;Samples;Min_cycle;Max_cycle;Signal;HPM_P1;HPM_P2
2022/10/29 00:00:15;;;;;;;21.70;14.00;;;12.30;71.00;;;;;;6056230;23;114111;-80
2022/10/29 00:02:42;;;;;;;20.13;15.45;;;12.30;71.00;;;;;;6055231;23;114921;-79
2022/10/29 00:05:09;;;;;;;17.75;13.68;;;12.30;70.90;;;;;;6055358;23;114594;-80
2022/10/29 00:07:37;;;;;;;18.73;13.98;;;12.30;70.80;;;;;;6054933;23;114319;-80
2022/10/29 00:10:04;;;;;;;17.05;13.68;;;12.20;70.70;;;;;;6056673;23;114181;-80
2022/10/29 00:12:31;;;;;;;18.40;14.13;;;12.20;70.70;;;;;;6053508;23;115218;-83
2022/10/29 00:14:58;;;;;;;16.85;13.35;;;12.10;70.80;;;;;;6054896;23;114581;-80
2022/10/29 00:17:25;;;;;;;17.80;12.98;;;12.10;70.90;;;;;;6056351;23;114364;-80
2022/10/29 00:19:52;;;;;;;18.58;13.68;;;12.10;71.10;;;;;;6056174;23;114273;-80
2022/10/29 00:22:19;;;;;;;18.40;12.40;;;12.00;71.20;;;;;;6053750;23;114824;-81
2022/10/29 00:24:46;;;;;;;17.50;12.68;;;12.10;71.30;;;;;;6053596;23;114570;-81
2022/10/29 00:27:15;;;;;;;19.42;12.38;;;12.10;71.30;;;;;;6056205;23;114266;-81
2022/10/29 00:29:44;;;;;;;15.75;10.95;;;12.10;71.40;;;;;;6031159;23;114517;-80
2022/10/29 00:32:11;;;;;;;15.45;11.10;;;12.10;71.30;;;;;;6054986;23;114843;-80
2022/10/29 00:34:38;;;;;;;18.67;12.45;;;12.10;71.40;;;;;;6053664;23;115486;-80
2022/10/29 00:37:05;;;;;;;15.77;12.70;;;12.10;71.30;;;;;;6030583;23;114259;-80
2022/10/29 00:39:33;;;;;;;15.93;11.02;;;12.20;71.30;;;;;;6030846;23;114283;-79
2022/10/29 00:42:00;;;;;;;16.67;11.95;;;12.20;71.20;;;;;;6055404;23;114799;-80
2022/10/29 00:44:29;;;;;;;14.13;10.85;;;12.20;71.20;;;;;;6054800;23;115037;-80
2022/10/29 00:47:02;;;;;;;14.73;11.05;;;12.20;71.20;;;;;;6030751;23;114077;-80
2022/10/29 00:49:30;;;;;;;15.52;11.55;;;12.20;71.10;;;;;;6054694;23;114319;-80
2022/10/29 00:51:59;;;;;;;14.85;10.60;;;12.20;71.00;;;;;;6029327;23;114770;-79
2022/10/29 00:54:27;;;;;;;17.33;11.05;;;12.20;71.10;;;;;;6052908;23;114565;-79
2022/10/29 00:57:18;;;;;;;15.02;11.48;;;12.20;71.00;;;;;;6030766;23;114472;-79
2022/10/29 00:59:45;;;;;;;15.15;10.95;;;12.20;70.80;;;;;;6056165;23;114382;-80
2022/10/29 01:02:13;;;;;;;16.58;11.25;;;12.20;70.80;;;;;;6054816;23;114830;-79
2022/10/29 01:04:40;;;;;;;14.43;11.10;;;12.20;70.70;;;;;;6053235;23;114566;-80
2022/10/29 01:07:08;;;;;;;15.30;10.95;;;12.20;70.90;;;;;;6030603;23;114374;-80
2022/10/29 01:09:35;;;;;;;16.55;11.27;;;12.20;70.80;;;;;;6059335;23;114429;-79
2022/10/29 01:12:24;;;;;;;16.10;11.38;;;12.20;70.80;;;;;;6031326;23;114075;-79
2022/10/29 01:15:04;;;;;;;16.58;11.85;;;12.20;70.70;;;;;;6053045;23;115758;-79
2022/10/29 01:17:45;;;;;;;14.30;10.93;;;12.20;70.90;;;;;;6032315;23;114170;-81
2022/10/29 01:20:35;;;;;;;15.93;10.98;;;12.20;70.90;;;;;;6054815;23;114319;-80
2022/10/29 01:23:33;;;;;;;17.75;11.63;;;12.20;70.90;;;;;;6054839;23;114949;-80
2022/10/29 01:26:19;;;;;;;15.85;11.20;;;12.20;70.70;;;;;;6053118;23;116046;-80
2022/10/29 01:29:12;;;;;;;16.30;11.43;;;12.20;70.80;;;;;;6053618;23;114283;-82
2022/10/29 01:32:03;;;;;;;17.25;12.05;;;12.20;70.90;;;;;;6010445;23;114536;-81
2022/10/29 01:34:36;;;;;;;15.73;11.43;;;12.20;71.00;;;;;;6054477;23;114853;-81
2022/10/29 01:37:13;;;;;;;16.02;11.75;;;12.10;71.00;;;;;;6029705;23;117503;-81
2022/10/29 01:39:44;;;;;;;15.80;11.80;;;12.20;70.90;;;;;;6054356;23;114299;-82
2022/10/29 01:42:13;;;;;;;15.68;10.98;;;12.20;70.90;;;;;;6054650;23;114209;-81
2022/10/29 01:44:52;;;;;;;16.33;11.32;;;12.10;70.90;;;;;;6029525;23;114771;-80
2022/10/29 01:47:19;;;;;;;14.50;10.75;;;12.20;70.90;;;;;;6054538;23;117283;-81
2022/10/29 01:49:53;;;;;;;13.80;8.88;;;12.10;70.90;;;;;;6054515;23;114209;-81
2022/10/29 01:52:20;;;;;;;12.73;9.13;;;12.20;70.60;;;;;;6030990;23;114144;-82
2022/10/29 01:54:47;;;;;;;11.57;8.40;;;12.20;70.40;;;;;;6053424;23;115072;-82
2022/10/29 01:57:32;;;;;;;11.68;8.75;;;12.10;70.40;;;;;;6053858;23;114610;-82
2022/10/29 02:00:16;;;;;;;14.45;8.73;;;12.20;70.20;;;;;;6054947;23;116423;-81
2022/10/29 02:03:02;;;;;;;12.48;9.38;;;12.20;70.20;;;;;;6030908;23;114440;-81
2022/10/29 02:06:02;;;;;;;12.35;8.88;;;12.10;70.30;;;;;;6054387;23;115740;-81
2022/10/29 02:08:34;;;;;;;12.48;8.60;;;12.10;70.20;;;;;;6054504;23;114846;-81
2022/10/29 02:11:16;;;;;;;11.82;8.60;;;12.10;70.40;;;;;;6029541;23;114406;-81
2022/10/29 02:13:47;;;;;;;14.10;9.13;;;12.10;70.20;;;;;;6006412;23;114596;-81
2022/10/29 02:16:14;;;;;;;12.05;9.48;;;12.10;70.20;;;;;;6053030;23;115251;-82
2022/10/29 02:18:42;;;;;;;15.48;9.15;;;12.00;70.30;;;;;;6054135;23;114530;-82
2022/10/29 02:21:09;;;;;;;11.75;8.98;;;12.10;70.40;;;;;;6030638;23;114169;-82
2022/10/29 02:23:36;;;;;;;13.88;9.65;;;12.10;70.40;;;;;;6056797;23;114331;-80
2022/10/29 02:26:03;;;;;;;15.43;10.00;;;12.10;70.40;;;;;;6055379;23;114860;-82
2022/10/29 02:28:30;;;;;;;13.73;9.30;;;12.10;70.40;;;;;;6005389;23;115277;-82
2022/10/29 02:30:57;;;;;;;12.63;9.50;;;12.00;70.50;;;;;;6056614;23;114125;-81
2022/10/29 02:33:24;;;;;;;17.75;10.52;;;12.10;70.50;;;;;;6057103;23;114347;-82
2022/10/29 02:35:51;;;;;;;13.82;9.63;;;12.00;70.40;;;;;;6054176;23;115044;-81
2022/10/29 02:38:18;;;;;;;12.57;9.65;;;12.00;70.40;;;;;;6054655;23;114502;-82
2022/10/29 02:40:45;;;;;;;12.45;9.52;;;12.00;70.50;;;;;;6031529;23;114399;-82
2022/10/29 02:43:12;;;;;;;12.18;9.48;;;11.90;70.40;;;;;;6056045;23;114268;-82
2022/10/29 02:45:39;;;;;;;12.82;9.88;;;11.90;70.60;;;;;;6055875;23;114894;-82
2022/10/29 02:48:06;;;;;;;11.48;8.48;;;11.90;70.60;;;;;;6030477;23;114936;-82
2022/10/29 02:50:34;;;;;;;13.45;9.02;;;11.90;70.40;;;;;;6057140;23;114392;-82
2022/10/29 02:53:00;;;;;;;11.00;8.48;;;11.90;70.50;;;;;;6057651;23;114131;-81
2022/10/29 02:55:27;;;;;;;11.80;8.30;;;11.80;70.60;;;;;;6055460;23;114919;-81
2022/10/29 02:57:54;;;;;;;13.70;9.57;;;11.80;70.60;;;;;;6060585;23;115000;-81
2022/10/29 03:00:22;;;;;;;11.95;9.07;;;11.70;70.70;;;;;;6057283;23;114637;-81
2022/10/29 03:02:51;;;;;;;11.07;8.82;;;11.70;70.90;;;;;;6055846;23;114082;-80
2022/10/29 03:05:18;;;;;;;12.38;9.05;;;11.70;71.00;;;;;;6055548;23;114828;-80
2022/10/29 03:07:45;;;;;;;14.25;9.63;;;11.70;71.00;;;;;;6055410;23;115299;-81
2022/10/29 03:10:12;;;;;;;12.30;9.38;;;11.70;70.90;;;;;;6055337;23;114410;-81
2022/10/29 03:12:39;;;;;;;12.48;10.00;;;11.70;70.90;;;;;;6056643;23;114342;-80
2022/10/29 03:15:07;;;;;;;17.00;12.73;;;11.70;71.00;;;;;;6054791;23;114881;-81
2022/10/29 03:17:34;;;;;;;16.98;11.40;;;11.70;71.00;;;;;;6055189;23;114638;-81
2022/10/29 03:20:01;;;;;;;13.55;10.07;;;11.80;70.90;;;;;;6054735;23;114672;-80
2022/10/29 03:22:28;;;;;;;12.63;9.48;;;11.70;70.90;;;;;;6056696;23;114177;-80
2022/10/29 03:24:58;;;;;;;13.60;8.82;;;11.70;70.90;;;;;;6029830;23;114809;-80
2022/10/29 03:27:28;;;;;;;14.95;9.60;;;11.80;70.90;;;;;;6053713;23;114664;-80
2022/10/29 03:29:55;;;;;;;14.00;10.02;;;11.70;70.90;;;;;;6056442;23;114206;-81
2022/10/29 03:32:23;;;;;;;14.07;10.18;;;11.70;70.80;;;;;;6056010;23;114175;-81
2022/10/29 03:34:50;;;;;;;14.75;10.57;;;11.70;70.80;;;;;;6053522;23;114905;-81
2022/10/29 03:37:23;;;;;;;14.02;9.80;;;11.70;70.80;;;;;;6053795;23;114689;-81
2022/10/29 03:39:50;;;;;;;14.68;10.85;;;11.70;70.80;;;;;;6056397;23;114249;-81
2022/10/29 03:42:17;;;;;;;15.38;10.80;;;11.70;70.90;;;;;;6056531;23;114236;-81
2022/10/29 03:44:44;;;;;;;15.55;10.32;;;11.70;70.90;;;;;;6054917;23;116050;-81
2022/10/29 03:47:11;;;;;;;14.48;10.27;;;11.70;71.00;;;;;;6053541;23;114578;-80
2022/10/29 03:49:38;;;;;;;13.88;10.02;;;11.70;71.00;;;;;;6056421;23;114228;-80
2022/10/29 03:52:05;;;;;;;17.00;10.23;;;11.80;70.90;;;;;;6056304;23;114238;-81
2022/10/29 03:54:32;;;;;;;13.23;9.30;;;11.80;70.90;;;;;;6029104;23;114895;-80
2022/10/29 03:56:59;;;;;;;14.77;10.27;;;11.80;70.70;;;;;;6055323;23;114610;-82
2022/10/29 03:59:26;;;;;;;14.13;9.88;;;11.80;70.60;;;;;;6056336;23;114331;-80
2022/10/29 04:01:53;;;;;;;15.57;9.90;;;11.80;70.60;;;;;;6055384;23;114079;-81
2022/10/29 04:04:20;;;;;;;15.80;9.23;;;11.80;70.60;;;;;;6053883;23;114789;-80
2022/10/29 04:06:47;;;;;;;12.85;8.70;;;11.90;70.50;;;;;;6030035;23;115200;-80
2022/10/29 04:09:14;;;;;;;12.90;9.20;;;11.90;70.40;;;;;;6030749;23;114367;-80
2022/10/29 04:11:41;;;;;;;15.40;9.88;;;11.90;70.40;;;;;;6056839;23;114239;-80
2022/10/29 04:14:08;;;;;;;14.25;9.57;;;11.80;70.40;;;;;;6054721;23;114786;-80
2022/10/29 04:16:35;;;;;;;12.60;9.10;;;11.90;70.60;;;;;;6053974;23;114523;-80
2022/10/29 04:19:02;;;;;;;13.60;8.90;;;11.90;70.50;;;;;;6055311;23;114292;-79
2022/10/29 04:21:29;;;;;;;12.13;8.50;;;11.90;70.40;;;;;;6056568;23;114258;-80
2022/10/29 04:24:16;;;;;;;11.25;7.55;;;11.90;70.40;;;;;;6055201;23;115375;-81
2022/10/29 04:27:03;;;;;;;10.80;8.30;;;11.90;70.60;;;;;;6054879;23;114721;-81
2022/10/29 04:29:50;;;;;;;12.05;7.72;;;11.90;70.50;;;;;;6056014;23;114322;-80
2022/10/29 04:32:17;;;;;;;9.48;6.82;;;11.80;70.50;;;;;;6056921;23;114480;-80
2022/10/29 04:34:44;;;;;;;11.15;7.50;;;11.80;70.50;;;;;;6029734;23;114918;-80
2022/10/29 04:37:11;;;;;;;12.90;8.70;;;11.90;70.60;;;;;;6054958;23;114565;-81
2022/10/29 04:39:38;;;;;;;14.27;9.82;;;11.90;70.60;;;;;;6055132;23;114216;-80
2022/10/29 04:42:05;;;;;;;12.70;7.97;;;12.00;70.60;;;;;;6056470;23;114257;-81
2022/10/29 04:44:32;;;;;;;12.68;8.20;;;12.00;70.50;;;;;;6053061;23;114779;-81
2022/10/29 04:46:59;;;;;;;13.15;8.45;;;12.00;70.50;;;;;;6055462;23;114533;-81
2022/10/29 04:49:26;;;;;;;13.70;8.95;;;12.00;70.40;;;;;;6056678;23;114792;-80
2022/10/29 04:51:53;;;;;;;14.52;9.05;;;12.00;70.50;;;;;;6056904;23;114706;-80
2022/10/29 04:54:20;;;;;;;15.75;9.05;;;12.00;70.60;;;;;;6053270;23;114902;-81
2022/10/29 04:56:47;;;;;;;16.45;9.43;;;11.90;70.70;;;;;;6055509;23;114615;-80
2022/10/29 04:59:14;;;;;;;15.00;9.07;;;11.90;70.70;;;;;;6056399;23;114056;-81
2022/10/29 05:01:41;;;;;;;13.13;8.93;;;11.90;70.70;;;;;;6056218;23;114249;-80
2022/10/29 05:04:08;;;;;;;11.90;8.80;;;11.90;70.90;;;;;;6053278;23;114905;-80
2022/10/29 05:06:35;;;;;;;16.02;10.10;;;11.90;71.10;;;;;;6053627;23;115633;-80
2022/10/29 05:09:02;;;;;;;13.65;9.82;;;11.90;71.10;;;;;;6053723;23;114269;-80
2022/10/29 05:11:29;;;;;;;13.32;9.95;;;11.80;71.10;;;;;;6055712;23;114152;-79
2022/10/29 05:13:56;;;;;;;15.77;9.82;;;11.70;71.10;;;;;;6054601;23;114831;-81
2022/10/29 05:16:23;;;;;;;15.55;9.93;;;11.70;71.40;;;;;;6054721;23;115029;-79
2022/10/29 05:18:50;;;;;;;15.82;10.23;;;11.70;71.60;;;;;;6056100;23;114622;-80
2022/10/29 05:21:17;;;;;;;15.15;9.27;;;11.70;71.70;;;;;;6055861;23;114457;-80
2022/10/29 05:23:44;;;;;;;18.88;10.63;;;11.70;71.90;;;;;;6054914;23;114951;-80
2022/10/29 05:26:11;;;;;;;15.07;9.38;;;11.70;71.90;;;;;;6054480;23;114992;-80
2022/10/29 05:28:38;;;;;;;14.32;9.65;;;11.60;72.00;;;;;;6054405;23;114299;-80
2022/10/29 05:31:05;;;;;;;16.10;9.20;;;11.60;72.10;;;;;;6056573;23;114383;-80
2022/10/29 05:33:32;;;;;;;14.70;10.15;;;11.60;72.20;;;;;;6054942;23;114804;-80
2022/10/29 05:36:00;;;;;;;14.18;9.88;;;11.70;72.20;;;;;;6054400;23;114869;-79
2022/10/29 05:38:27;;;;;;;19.33;11.43;;;11.70;72.10;;;;;;6054687;23;114300;-80
2022/10/29 05:40:57;;;;;;;18.25;13.32;;;11.70;72.00;;;;;;6055500;23;114301;-80
2022/10/29 05:43:24;;;;;;;18.77;12.77;;;11.70;72.00;;;;;;6052889;23;114819;-80
2022/10/29 05:45:51;;;;;;;17.17;11.73;;;11.70;71.90;;;;;;6052771;23;114544;-80
2022/10/29 05:48:18;;;;;;;17.80;12.38;;;11.80;71.90;;;;;;6055372;23;114444;-80
2022/10/29 05:50:45;;;;;;;17.52;12.85;;;11.80;71.80;;;;;;6053998;23;114368;-80
2022/10/29 05:53:13;;;;;;;16.92;12.35;;;11.80;71.70;;;;;;6053729;23;114732;-80
2022/10/29 05:55:40;;;;;;;16.52;12.10;;;11.80;71.60;;;;;;6052757;23;114561;-81
2022/10/29 05:58:09;;;;;;;17.00;11.30;;;11.90;71.50;;;;;;6053218;23;114319;-81
2022/10/29 06:00:38;;;;;;;17.60;12.35;;;11.90;71.40;;;;;;6053226;23;114265;-81
2022/10/29 06:03:15;;;;;;;17.20;11.27;;;11.90;71.40;;;;;;6028198;23;114720;-80
2022/10/29 06:05:42;;;;;;;18.40;11.98;;;12.00;71.20;;;;;;6053985;23;114601;-80
2022/10/29 06:08:09;;;;;;;17.20;11.75;;;12.00;71.40;;;;;;6054950;23;114290;-81
2022/10/29 06:10:39;;;;;;;17.60;10.55;;;12.00;71.30;;;;;;6054861;23;114227;-81
2022/10/29 06:13:15;;;;;;;17.88;10.80;;;12.10;71.10;;;;;;6051474;23;114925;-81
2022/10/29 06:15:42;;;;;;;16.52;11.60;;;12.10;70.90;;;;;;6051289;23;114574;-81
2022/10/29 06:18:09;;;;;;;19.15;13.27;;;12.10;70.90;;;;;;6054122;23;114142;-81
2022/10/29 06:20:37;;;;;;;20.20;12.32;;;12.10;70.90;;;;;;6029565;23;114467;-81
2022/10/29 06:23:05;;;;;;;13.55;9.98;;;12.10;70.80;;;;;;6051957;23;115046;-81
2022/10/29 06:25:32;;;;;;;12.70;9.38;;;12.10;70.80;;;;;;6027734;23;115779;-81
2022/10/29 06:28:07;;;;;;;12.27;8.30;;;12.20;70.70;;;;;;6053334;23;114353;-81
2022/10/29 06:30:35;;;;;;;12.77;9.32;;;12.20;70.60;;;;;;6053674;23;114415;-80
2022/10/29 06:33:03;;;;;;;12.20;9.02;;;12.20;70.60;;;;;;6056706;23;115146;-81
2022/10/29 06:35:30;;;;;;;13.02;8.48;;;12.20;70.60;;;;;;6055241;23;114663;-81
2022/10/29 06:37:57;;;;;;;11.75;8.40;;;12.20;70.40;;;;;;6053554;23;114535;-80
2022/10/29 06:40:25;;;;;;;15.23;9.07;;;12.20;70.20;;;;;;6029839;23;114787;-80
2022/10/29 06:43:00;;;;;;;15.02;9.30;;;12.30;70.20;;;;;;6053893;23;115188;-81
2022/10/29 06:45:32;;;;;;;12.95;8.63;;;12.40;70.10;;;;;;6029209;23;115789;-81
2022/10/29 06:47:59;;;;;;;14.70;9.25;;;12.40;70.30;;;;;;6054931;23;114500;-80
2022/10/29 06:50:26;;;;;;;14.55;9.63;;;12.50;70.20;;;;;;6053852;23;114258;-80
2022/10/29 06:52:54;;;;;;;14.57;9.93;;;12.50;70.20;;;;;;6053357;23;114145;-81
2022/10/29 06:55:23;;;;;;;16.23;10.13;;;12.60;70.10;;;;;;6053102;23;114553;-81
2022/10/29 06:57:59;;;;;;;14.90;9.70;;;12.70;70.00;;;;;;6053320;23;114251;-81
2022/10/29 07:00:27;;;;;;;17.90;9.65;;;12.80;69.60;;;;;;6054136;23;114420;-81
2022/10/29 07:02:55;;;;;;;19.20;12.00;;;12.80;69.40;;;;;;6028936;23;115121;-80
2022/10/29 07:05:25;;;;;;;17.20;11.38;;;12.90;69.30;;;;;;6053068;23;114760;-80
2022/10/29 07:07:54;;;;;;;15.45;10.68;;;13.00;69.40;;;;;;6054551;23;114063;-82
2022/10/29 07:10:22;;;;;;;18.23;11.77;;;13.00;69.40;;;;;;6054030;23;114318;-79
2022/10/29 07:12:50;;;;;;;14.02;10.13;;;13.10;69.20;;;;;;6054175;23;115177;-79
2022/10/29 07:15:17;;;;;;;18.60;12.57;;;13.20;69.10;;;;;;6053707;23;115846;-79
2022/10/29 07:17:58;;;;;;;19.13;12.98;;;13.30;68.80;;;;;;6054993;23;114290;-79
2022/10/29 07:20:26;;;;;;;16.00;10.95;;;13.50;68.50;;;;;;6056116;23;114214;-79
2022/10/29 07:22:54;;;;;;;17.27;11.50;;;13.60;68.30;;;;;;6054401;23;115744;-80
2022/10/29 07:25:25;;;;;;;14.85;10.93;;;13.70;67.90;;;;;;6052905;23;116439;-80
2022/10/29 07:27:52;;;;;;;15.77;10.75;;;13.70;67.60;;;;;;6055123;23;114464;-81
2022/10/29 07:30:20;;;;;;;14.00;10.13;;;13.80;67.30;;;;;;6055336;23;114306;-81
2022/10/29 07:32:47;;;;;;;15.43;10.60;;;13.80;67.30;;;;;;6054235;23;115615;-81
2022/10/29 07:35:14;;;;;;;15.00;10.52;;;13.80;67.10;;;;;;6054374;23;114881;-80
2022/10/29 07:37:41;;;;;;;16.60;10.82;;;13.90;67.00;;;;;;6055887;23;114545;-80
2022/10/29 07:40:08;;;;;;;14.00;9.27;;;13.90;66.80;;;;;;6055002;23;114411;-81
2022/10/29 07:42:35;;;;;;;12.43;8.88;;;14.00;66.80;;;;;;6078128;23;114756;-81
2022/10/29 07:45:03;;;;;;;14.65;8.35;;;14.00;66.60;;;;;;6055600;23;114552;-81
2022/10/29 07:47:30;;;;;;;12.45;8.13;;;14.10;66.60;;;;;;6056439;23;114467;-81
2022/10/29 07:49:56;;;;;;;11.25;7.10;;;14.20;65.90;;;;;;6055934;23;114337;-80
2022/10/29 07:52:23;;;;;;;15.50;9.02;;;14.20;65.70;;;;;;6055001;23;116027;-81
2022/10/29 07:54:50;;;;;;;11.32;8.40;;;14.20;65.80;;;;;;6054165;23;114773;-81
2022/10/29 07:57:17;;;;;;;13.80;8.68;;;14.20;65.70;;;;;;6055903;23;114338;-82
2022/10/29 07:59:45;;;;;;;13.30;7.90;;;14.40;65.70;;;;;;6056285;23;114270;-81
2022/10/29 08:02:12;;;;;;;13.85;7.63;;;14.40;65.30;;;;;;6053529;23;115389;-81
2022/10/29 08:04:39;;;;;;;11.13;7.82;;;14.40;65.10;;;;;;6029353;23;114727;-81
2022/10/29 08:07:06;;;;;;;13.50;8.75;;;14.50;65.20;;;;;;6054785;23;114231;-82
2022/10/29 08:09:33;;;;;;;13.60;8.10;;;14.50;65.00;;;;;;6055437;23;114664;-81
2022/10/29 08:12:00;;;;;;;13.75;8.48;;;14.60;64.90;;;;;;6053414;23;116021;-79
2022/10/29 08:14:27;;;;;;;11.93;7.85;;;14.70;65.20;;;;;;6054448;23;115000;-79
2022/10/29 08:16:54;;;;;;;12.75;7.95;;;14.70;65.60;;;;;;6055611;23;114101;-80
2022/10/29 08:19:21;;;;;;;12.18;7.93;;;14.80;65.00;;;;;;6057172;23;114339;-83
2022/10/29 08:21:49;;;;;;;13.13;7.78;;;14.80;65.20;;;;;;6053992;23;114963;-80
2022/10/29 08:24:16;;;;;;;12.32;8.23;;;14.80;64.90;;;;;;6053049;23;117573;-81
2022/10/29 08:26:43;;;;;;;11.35;8.98;;;14.90;64.70;;;;;;6055885;23;114127;-80
2022/10/29 08:29:10;;;;;;;13.10;8.70;;;15.00;64.70;;;;;;6056650;23;114296;-81
2022/10/29 08:31:37;;;;;;;10.57;7.40;;;15.20;64.60;;;;;;6055075;23;114772;-80
2022/10/29 08:34:04;;;;;;;13.65;8.32;;;15.30;64.30;;;;;;6078204;23;114722;-81
2022/10/29 08:36:36;;;;;;;11.38;8.10;;;15.30;64.20;;;;;;6054805;23;114482;-80
2022/10/29 08:39:03;;;;;;;13.85;8.43;;;15.30;64.10;;;;;;6055317;23;114360;-81
2022/10/29 08:41:40;;;;;;;13.18;8.63;;;15.40;64.10;;;;;;6029779;23;114941;-81
2022/10/29 08:44:43;;;;;;;12.43;8.85;;;15.50;63.90;;;;;;6054413;23;114843;-82
2022/10/29 08:47:20;;;;;;;11.45;8.73;;;15.60;63.70;;;;;;6055014;23;114821;-80
2022/10/29 08:50:39;;;;;;;12.63;8.82;;;15.50;63.50;;;;;;6055144;23;114355;-81
2022/10/29 08:53:21;;;;;;;12.23;8.82;;;15.70;63.50;;;;;;5979408;23;114745;-81
2022/10/29 08:55:50;;;;;;;12.73;9.52;;;15.60;63.50;;;;;;5970808;23;114524;-81
2022/10/29 08:58:55;;;;;;;16.33;9.48;;;15.60;63.50;;;;;;6032545;23;114567;-80
2022/10/29 09:01:22;;;;;;;13.07;8.93;;;15.70;63.50;;;;;;6056236;23;114493;-80
2022/10/29 09:03:50;;;;;;;12.90;9.38;;;15.60;63.60;;;;;;6029183;23;115607;-81
2022/10/29 09:06:45;;;;;;;13.88;9.25;;;15.70;63.50;;;;;;6053604;23;114537;-83
2022/10/29 09:09:25;;;;;;;14.07;8.18;;;15.80;63.30;;;;;;6032663;23;114358;-84
2022/10/29 09:12:25;;;;;;;15.68;8.88;;;15.80;63.30;;;;;;6054010;23;114262;-82
2022/10/29 09:15:17;;;;;;;12.45;8.80;;;15.80;63.10;;;;;;6047475;23;114858;-82
2022/10/29 09:17:54;;;;;;;12.93;8.55;;;15.90;63.00;;;;;;6055959;23;114631;-82
2022/10/29 09:20:26;;;;;;;14.55;8.82;;;15.90;62.90;;;;;;6055510;23;114249;-83
2022/10/29 09:23:11;;;;;;;12.55;9.35;;;15.90;62.80;;;;;;6055723;23;115453;-83
2022/10/29 09:26:03;;;;;;;17.50;9.65;;;15.90;62.80;;;;;;6054137;23;114902;-83
2022/10/29 09:29:01;;;;;;;15.80;9.70;;;16.00;62.90;;;;;;6054672;23;116021;-82
2022/10/29 09:31:43;;;;;;;13.60;8.82;;;16.00;62.70;;;;;;6055026;23;114167;-82
2022/10/29 09:34:22;;;;;;;13.50;9.15;;;16.00;62.60;;;;;;6030014;23;114329;-83
2022/10/29 09:36:49;;;;;;;13.23;8.50;;;16.00;62.80;;;;;;6029711;23;115652;-82
2022/10/29 09:39:28;;;;;;;12.35;8.85;;;16.10;62.80;;;;;;6004551;23;114941;-82
2022/10/29 09:42:01;;;;;;;12.85;9.25;;;16.20;62.60;;;;;;6031504;23;114398;-82
2022/10/29 09:44:45;;;;;;;12.20;8.10;;;16.20;62.50;;;;;;6053922;23;114589;-82
2022/10/29 09:47:34;;;;;;;13.55;8.45;;;16.20;62.30;;;;;;6029537;23;114872;-82
2022/10/29 09:50:16;;;;;;;13.52;9.98;;;16.20;62.50;;;;;;6053446;23;114631;-83
2022/10/29 09:52:44;;;;;;;14.18;9.25;;;16.30;62.50;;;;;;6028156;23;114396;-82
2022/10/29 09:55:37;;;;;;;13.40;9.45;;;16.30;62.50;;;;;;6029278;23;115982;-82
2022/10/29 09:58:05;;;;;;;14.80;9.30;;;16.30;62.30;;;;;;6032187;23;115908;-83
2022/10/29 10:00:34;;;;;;;11.68;8.32;;;16.40;62.40;;;;;;6028968;23;115967;-83
2022/10/29 10:03:22;;;;;;;15.32;8.88;;;16.40;62.20;;;;;;6055142;23;114185;-82
2022/10/29 10:06:01;;;;;;;13.80;9.25;;;16.60;61.80;;;;;;6054362;23;114658;-82
2022/10/29 10:08:29;;;;;;;12.77;8.70;;;16.60;61.60;;;;;;6027482;23;115117;-83
2022/10/29 10:11:00;;;;;;;17.20;9.57;;;16.50;61.70;;;;;;6027357;23;114684;-83
2022/10/29 10:13:29;;;;;;;13.18;8.82;;;16.60;61.60;;;;;;6029273;23;115305;-83
2022/10/29 10:16:05;;;;;;;12.38;8.60;;;16.60;61.90;;;;;;6029108;23;118448;-83
2022/10/29 10:18:40;;;;;;;12.20;8.68;;;16.70;61.90;;;;;;6053916;23;115131;-82
2022/10/29 10:21:29;;;;;;;12.25;9.15;;;16.70;61.60;;;;;;6029948;23;114741;-83
2022/10/29 10:23:57;;;;;;;13.90;8.68;;;16.80;61.60;;;;;;6030251;23;114116;-83
2022/10/29 10:26:43;;;;;;;12.40;8.43;;;16.80;61.50;;;;;;6055569;23;114436;-82
2022/10/29 10:29:21;;;;;;;12.05;8.70;;;17.00;61.10;;;;;;6052665;23;115287;-83
2022/10/29 10:31:49;;;;;;;13.50;9.07;;;17.00;61.20;;;;;;6056475;23;114728;-82
2022/10/29 10:34:32;;;;;;;14.55;10.57;;;17.00;61.20;;;;;;6034068;23;114248;-83
2022/10/29 10:37:04;;;;;;;13.07;8.30;;;17.10;61.00;;;;;;6054506;23;114353;-83
2022/10/29 10:39:35;;;;;;;13.95;9.68;;;17.20;60.90;;;;;;6028049;23;115844;-83
2022/10/29 10:42:18;;;;;;;14.63;9.35;;;17.30;60.70;;;;;;6054238;23;114616;-83
2022/10/29 10:44:51;;;;;;;14.35;9.20;;;17.30;60.70;;;;;;6057888;23;114280;-81
2022/10/29 10:47:22;;;;;;;18.63;10.60;;;17.30;60.40;;;;;;6054685;23;114402;-81
2022/10/29 10:49:49;;;;;;;16.58;12.23;;;17.30;60.30;;;;;;6005517;23;114830;-82
2022/10/29 10:52:25;;;;;;;16.73;11.02;;;17.40;60.40;;;;;;6051869;23;114563;-81
2022/10/29 10:55:02;;;;;;;16.02;10.85;;;17.40;60.30;;;;;;6053816;23;114382;-83
2022/10/29 10:57:31;;;;;;;14.60;8.52;;;17.50;60.10;;;;;;6030160;23;114914;-83
2022/10/29 11:00:06;;;;;;;11.73;7.80;;;17.50;60.20;;;;;;6053017;23;114821;-83
2022/10/29 11:02:56;;;;;;;10.52;7.75;;;17.50;60.10;;;;;;6054776;23;114574;-83
2022/10/29 11:05:31;;;;;;;12.55;7.85;;;17.60;60.10;;;;;;6030787;23;114329;-83
2022/10/29 11:08:09;;;;;;;11.90;7.03;;;17.50;60.10;;;;;;6055885;23;114356;-82
2022/10/29 11:10:41;;;;;;;11.15;7.40;;;17.50;60.20;;;;;;6055220;23;114847;-82
2022/10/29 11:13:14;;;;;;;11.30;7.22;;;17.50;60.00;;;;;;6029543;23;114613;-82
2022/10/29 11:15:53;;;;;;;11.90;7.70;;;17.50;59.80;;;;;;6055070;23;114452;-82
2022/10/29 11:18:37;;;;;;;10.82;7.82;;;17.60;59.70;;;;;;6032429;23;114266;-83
2022/10/29 11:21:18;;;;;;;12.48;7.13;;;17.50;59.70;;;;;;6032170;23;114971;-83
2022/10/29 11:23:57;;;;;;;11.57;7.57;;;17.40;59.90;;;;;;6053249;23;114760;-83
2022/10/29 11:26:43;;;;;;;9.82;7.40;;;17.40;60.20;;;;;;6055428;23;114235;-82
2022/10/29 11:29:13;;;;;;;11.98;8.20;;;17.30;60.30;;;;;;6054667;23;114439;-82
2022/10/29 11:32:09;;;;;;;11.88;7.45;;;17.30;60.60;;;;;;6053108;23;118097;-83
2022/10/29 11:34:56;;;;;;;12.90;8.32;;;17.40;60.40;;;;;;6048184;23;116151;-83
2022/10/29 11:37:42;;;;;;;13.15;8.50;;;17.30;60.30;;;;;;6055309;23;114270;-83
2022/10/29 11:40:13;;;;;;;13.85;8.20;;;17.30;60.40;;;;;;6053585;23;114470;-82
2022/10/29 11:42:40;;;;;;;9.95;8.27;;;17.20;60.60;;;;;;6052768;23;115391;-84
2022/10/29 11:45:11;;;;;;;15.93;13.30;;;17.20;60.50;;;;;;6055071;23;114550;-83
2022/10/29 11:48:05;;;;;;;13.45;9.40;;;17.20;60.60;;;;;;6054011;23;114462;-83
2022/10/29 11:50:35;;;;;;;12.60;8.47;;;17.30;60.50;;;;;;6054668;23;114305;-83
2022/10/29 11:53:48;;;;;;;31.92;22.95;;;17.30;60.60;;;;;;6054164;23;116969;-83
2022/10/29 11:56:20;;;;;;;16.95;11.63;;;17.30;60.60;;;;;;6065849;23;114676;-83
2022/10/29 11:58:58;;;;;;;13.68;11.07;;;17.30;60.60;;;;;;6053949;23;114476;-84
2022/10/29 12:01:37;;;;;;;17.00;11.15;;;17.30;60.60;;;;;;6053233;23;114198;-83
2022/10/29 12:04:14;;;;;;;15.50;11.93;;;17.30;60.70;;;;;;6053877;23;114787;-83
2022/10/29 12:07:01;;;;;;;13.00;10.52;;;17.20;60.70;;;;;;6031664;23;114711;-82
2022/10/29 12:09:43;;;;;;;16.50;11.15;;;17.20;60.60;;;;;;6031334;23;114724;-83
2022/10/29 12:12:20;;;;;;;13.82;10.85;;;17.00;60.90;;;;;;6055233;23;114302;-84
2022/10/29 12:14:56;;;;;;;17.77;10.88;;;17.00;61.00;;;;;;6053529;23;114903;-82
2022/10/29 12:17:38;;;;;;;14.23;10.88;;;16.90;61.30;;;;;;6052390;23;114803;-83
2022/10/29 12:20:28;;;;;;;16.75;13.25;;;17.00;61.50;;;;;;6053457;23;114400;-83
2022/10/29 12:23:09;;;;;;;17.50;12.98;;;16.90;61.60;;;;;;6053122;23;114437;-83
2022/10/29 12:26:01;;;;;;;18.33;12.43;;;16.90;61.70;;;;;;6029714;23;114848;-83
2022/10/29 12:28:44;;;;;;;16.40;11.98;;;16.80;61.70;;;;;;6052095;23;114622;-83
2022/10/29 12:31:30;;;;;;;15.77;12.25;;;16.80;61.80;;;;;;6053130;23;114126;-83
2022/10/29 12:34:02;;;;;;;15.82;12.20;;;16.80;61.80;;;;;;6053555;23;114754;-82
2022/10/29 12:36:58;;;;;;;15.45;12.32;;;16.80;61.80;;;;;;6051623;23;117955;-83
2022/10/29 12:39:40;;;;;;;13.60;12.18;;;16.80;61.90;;;;;;6019058;23;114741;-83
2022/10/29 12:42:20;;;;;;;16.00;12.35;;;16.70;61.90;;;;;;6031986;23;114551;-84
2022/10/29 12:44:57;;;;;;;15.05;11.93;;;16.70;62.20;;;;;;6054141;23;114291;-83
2022/10/29 12:47:34;;;;;;;16.50;12.68;;;16.70;62.10;;;;;;6061536;23;114972;-83
2022/10/29 12:50:27;;;;;;;14.70;12.52;;;16.60;62.30;;;;;;6061556;23;114960;-83